createdAt,value
2018-08-25T00:02:24.351Z,80.67
2018-08-25T00:04:51.813Z,80.61
2018-08-25T00:07:19.473Z,80.41
2018-08-25T00:09:46.911Z,80.35
2018-08-25T00:12:14.401Z,80.86
2018-08-25T00:14:42.103Z,80.29
2018-08-25T00:17:09.597Z,80.75
2018-08-25T00:19:37.155Z,80.92
2018-08-25T00:22:04.890Z,80.87
2018-08-25T00:24:32.400Z,80.80
2018-08-25T00:26:59.941Z,80.41
2018-08-25T00:29:27.571Z,80.52
2018-08-25T00:31:55.067Z,80.69
2018-08-25T00:34:22.677Z,80.56
2018-08-25T00:36:50.408Z,80.67
2018-08-25T00:39:17.838Z,81.00
2018-08-25T00:41:45.600Z,80.73
2018-08-25T00:44:13.215Z,80.97
2018-08-25T00:46:40.809Z,80.45
2018-08-25T00:49:08.421Z,81.12
2018-08-25T00:51:36.084Z,80.77
2018-08-25T00:54:03.596Z,80.71
2018-08-25T00:56:31.040Z,80.89
2018-08-25T00:58:58.682Z,80.78
2018-08-25T01:01:26.131Z,81.25
2018-08-25T01:03:53.602Z,80.83
2018-08-25T01:06:21.281Z,80.57
2018-08-25T01:08:48.739Z,81.18
2018-08-25T01:11:16.217Z,81.15
2018-08-25T01:13:43.973Z,80.95
2018-08-25T01:16:11.404Z,80.60
2018-08-25T01:21:13.126Z,80.59
2018-08-25T01:23:40.631Z,81.05
2018-08-25T01:26:09.071Z,80.73
2018-08-25T01:28:36.627Z,80.68
2018-08-25T01:31:04.100Z,81.16
2018-08-25T01:33:31.554Z,80.57
2018-08-25T01:35:59.293Z,80.66
2018-08-25T01:38:33.450Z,80.66
2018-08-25T01:41:01.105Z,80.68
2018-08-25T01:46:27.171Z,80.56
2018-08-25T01:48:54.640Z,80.51
2018-08-25T01:51:22.087Z,80.52
2018-08-25T01:53:50.129Z,80.95
2018-08-25T01:56:17.549Z,81.14
2018-08-25T01:58:45.110Z,80.61
2018-08-25T02:01:12.742Z,80.63
2018-08-25T02:03:40.200Z,81.16
2018-08-25T02:06:07.747Z,81.11
2018-08-25T02:08:35.362Z,81.14
2018-08-25T02:11:02.817Z,80.52
2018-08-25T02:13:30.259Z,80.63
2018-08-25T02:15:57.995Z,80.67
2018-08-25T02:18:25.454Z,81.01
2018-08-25T02:20:52.935Z,80.61
2018-08-25T02:23:20.611Z,81.06
2018-08-25T02:25:48.057Z,80.76
2018-08-25T02:28:15.530Z,81.05
2018-08-25T02:30:43.225Z,80.97
2018-08-25T02:33:10.725Z,81.34
2018-08-25T02:35:38.164Z,80.88
2018-08-25T02:38:05.778Z,81.24
2018-08-25T02:40:33.222Z,80.90
2018-08-25T02:43:00.678Z,80.71
2018-08-25T02:45:28.459Z,80.89
2018-08-25T02:47:55.931Z,81.24
2018-08-25T02:50:23.654Z,80.68
2018-08-25T02:52:51.376Z,80.96
2018-08-25T02:55:18.871Z,80.69
2018-08-25T02:57:46.394Z,80.54
2018-08-25T03:00:14.015Z,80.58
2018-08-25T03:02:41.465Z,80.78
2018-08-25T03:05:08.936Z,80.29
2018-08-25T03:07:36.597Z,80.24
2018-08-25T03:10:04.030Z,80.47
2018-08-25T03:12:31.452Z,80.37
2018-08-25T03:14:59.310Z,79.91
2018-08-25T03:17:26.759Z,80.12
2018-08-25T03:19:54.273Z,79.60
2018-08-25T03:22:21.982Z,79.60
2018-08-25T03:24:49.470Z,79.49
2018-08-25T03:27:16.917Z,79.81
2018-08-25T03:29:44.657Z,79.95
2018-08-25T03:32:12.132Z,79.51
2018-08-25T03:34:39.553Z,79.24
2018-08-25T03:37:07.277Z,79.52
2018-08-25T03:39:34.740Z,79.05
2018-08-25T03:42:02.198Z,79.35
2018-08-25T03:44:29.888Z,78.84
2018-08-25T03:46:57.666Z,78.78
2018-08-25T03:49:25.092Z,79.07
2018-08-25T03:51:52.720Z,78.99
2018-08-25T03:54:20.178Z,78.90
2018-08-25T03:56:47.698Z,78.99
2018-08-25T03:59:15.281Z,78.64
2018-08-25T04:01:42.838Z,78.57
2018-08-25T04:04:10.462Z,78.50
2018-08-25T04:06:38.088Z,78.60
2018-08-25T04:09:08.929Z,78.47
2018-08-25T04:11:36.416Z,78.90
2018-08-25T04:14:04.120Z,78.43
2018-08-25T04:16:31.626Z,78.41
2018-08-25T04:18:59.111Z,78.70
2018-08-25T04:21:26.719Z,78.42
2018-08-25T04:23:54.161Z,78.80
2018-08-25T04:26:21.638Z,78.27
2018-08-25T04:28:49.345Z,78.68
2018-08-25T04:31:16.839Z,78.12
2018-08-25T04:33:44.283Z,78.31
2018-08-25T04:36:11.910Z,78.29
2018-08-25T04:38:39.387Z,78.24
2018-08-25T04:41:06.869Z,78.75
2018-08-25T04:43:34.438Z,78.01
2018-08-25T04:46:01.958Z,78.17
2018-08-25T04:48:29.636Z,77.60
2018-08-25T04:50:57.270Z,77.98
2018-08-25T04:53:24.702Z,77.78
2018-08-25T04:55:52.137Z,77.85
2018-08-25T04:58:19.759Z,77.96
2018-08-25T05:00:47.216Z,77.88
2018-08-25T05:03:14.643Z,77.39
2018-08-25T05:05:42.262Z,77.68
2018-08-25T05:08:09.726Z,77.68
2018-08-25T05:10:38.080Z,77.82
2018-08-25T05:13:05.762Z,77.83
2018-08-25T05:15:33.185Z,77.85
2018-08-25T05:18:00.653Z,77.87
2018-08-25T05:20:28.226Z,77.57
2018-08-25T05:22:55.689Z,77.55
2018-08-25T05:25:23.132Z,77.81
2018-08-25T05:27:50.747Z,77.38
2018-08-25T05:30:18.161Z,77.34
2018-08-25T05:32:45.627Z,77.62
2018-08-25T05:35:13.256Z,77.38
2018-08-25T05:37:40.688Z,77.74
2018-08-25T05:40:08.233Z,77.34
2018-08-25T05:42:35.995Z,77.73
2018-08-25T05:45:03.525Z,77.23
2018-08-25T05:47:31.092Z,77.67
2018-08-25T05:49:59.068Z,77.14
2018-08-25T05:52:26.501Z,77.27
2018-08-25T05:54:53.970Z,77.33
2018-08-25T05:57:21.535Z,76.97
2018-08-25T05:59:49.012Z,76.79
2018-08-25T06:02:16.475Z,77.19
2018-08-25T06:04:44.037Z,76.79
2018-08-25T06:07:11.570Z,76.76
2018-08-25T06:09:38.968Z,76.81
2018-08-25T06:12:06.806Z,77.20
2018-08-25T06:14:34.234Z,77.07
2018-08-25T06:17:01.724Z,76.68
2018-08-25T06:19:29.415Z,76.90
2018-08-25T06:21:56.847Z,76.57
2018-08-25T06:24:24.307Z,76.94
2018-08-25T06:26:52.062Z,76.24
2018-08-25T06:29:19.522Z,76.66
2018-08-25T06:31:46.993Z,76.24
2018-08-25T06:34:14.532Z,76.32
2018-08-25T06:36:42.048Z,76.02
2018-08-25T06:39:10.083Z,76.05
2018-08-25T06:41:37.709Z,76.02
2018-08-25T06:44:05.266Z,75.48
2018-08-25T06:46:32.732Z,75.64
2018-08-25T06:49:00.453Z,75.74
2018-08-25T06:51:28.158Z,75.65
2018-08-25T06:53:55.597Z,75.19
2018-08-25T06:56:23.341Z,75.37
2018-08-25T06:58:50.761Z,74.51
2018-08-25T07:01:18.217Z,74.81
2018-08-25T07:03:46.026Z,74.88
2018-08-25T07:06:13.486Z,74.59
2018-08-25T07:08:40.909Z,73.65
2018-08-25T07:11:08.716Z,74.14
2018-08-25T07:13:36.156Z,73.60
2018-08-25T07:16:03.669Z,74.06
2018-08-25T07:18:31.347Z,73.64
2018-08-25T07:20:58.825Z,73.75
2018-08-25T07:23:26.305Z,73.44
2018-08-25T07:25:53.924Z,73.80
2018-08-25T07:28:21.333Z,73.22
2018-08-25T07:30:48.892Z,73.20
2018-08-25T07:33:16.621Z,73.25
2018-08-25T07:35:44.089Z,72.72
2018-08-25T07:38:11.520Z,72.15
2018-08-25T07:40:39.276Z,72.50
2018-08-25T07:43:06.743Z,72.46
2018-08-25T07:45:34.212Z,72.33
2018-08-25T07:48:01.922Z,72.39
2018-08-25T07:50:29.426Z,71.84
2018-08-25T07:52:57.144Z,71.94
2018-08-25T07:55:24.884Z,72.28
2018-08-25T07:57:52.311Z,71.67
2018-08-25T08:00:19.758Z,72.22
2018-08-25T08:02:47.395Z,71.87
2018-08-25T08:05:14.845Z,71.61
2018-08-25T08:07:42.271Z,71.49
2018-08-25T08:10:10.494Z,71.52
2018-08-25T08:12:38.001Z,71.47
2018-08-25T08:15:05.581Z,71.45
2018-08-25T08:17:33.249Z,70.68
2018-08-25T08:20:00.744Z,71.07
2018-08-25T08:22:28.211Z,70.55
2018-08-25T08:24:55.848Z,70.84
2018-08-25T08:27:23.253Z,70.44
2018-08-25T08:29:50.765Z,70.33
2018-08-25T08:32:18.461Z,69.90
2018-08-25T08:34:45.920Z,70.10
2018-08-25T08:37:13.354Z,70.24
2018-08-25T08:39:40.963Z,69.79
2018-08-25T08:42:08.559Z,69.99
2018-08-25T08:44:36.024Z,69.17
2018-08-25T08:47:03.678Z,68.97
2018-08-25T08:49:31.131Z,69.49
2018-08-25T08:51:58.604Z,68.96
2018-08-25T08:54:26.280Z,69.11
2018-08-25T08:56:53.711Z,69.08
2018-08-25T08:59:21.207Z,69.61
2018-08-25T09:01:48.779Z,68.81
2018-08-25T09:04:16.231Z,68.85
2018-08-25T09:06:43.692Z,68.60
2018-08-25T09:09:11.329Z,68.84
2018-08-25T09:11:39.293Z,68.54
2018-08-25T09:14:06.792Z,68.27
2018-08-25T09:16:34.448Z,68.67
2018-08-25T09:19:01.978Z,68.46
2018-08-25T09:21:29.455Z,68.40
2018-08-25T09:23:57.106Z,68.25
2018-08-25T09:26:24.512Z,68.31
2018-08-25T09:28:52.064Z,67.69
2018-08-25T09:31:19.725Z,67.89
2018-08-25T09:33:47.151Z,67.97
2018-08-25T09:36:14.710Z,67.99
2018-08-25T09:38:42.267Z,67.40
2018-08-25T09:41:09.828Z,67.16
2018-08-25T09:43:37.427Z,67.29
2018-08-25T09:46:05.218Z,66.92
2018-08-25T09:48:32.740Z,66.56
2018-08-25T09:51:00.314Z,66.41
2018-08-25T09:53:27.942Z,66.35
2018-08-25T09:55:55.600Z,66.47
2018-08-25T09:58:23.086Z,65.68
2018-08-25T10:00:56.165Z,66.10
2018-08-25T10:03:23.740Z,65.84
2018-08-25T10:05:51.273Z,65.52
2018-08-25T10:08:18.834Z,65.51
2018-08-25T10:10:46.453Z,66.45
2018-08-25T10:13:13.909Z,65.74
2018-08-25T10:15:41.434Z,65.72
2018-08-25T10:18:09.164Z,65.58
2018-08-25T10:20:36.650Z,64.92
2018-08-25T10:23:04.215Z,64.92
2018-08-25T10:25:31.805Z,64.94
2018-08-25T10:27:59.362Z,64.79
2018-08-25T10:30:26.802Z,64.35
2018-08-25T10:32:54.740Z,64.52
2018-08-25T10:35:22.317Z,64.12
2018-08-25T10:37:49.722Z,63.55
2018-08-25T10:40:17.505Z,62.73
2018-08-25T10:42:45.129Z,62.96
2018-08-25T10:45:12.579Z,62.88
2018-08-25T10:47:40.295Z,62.48
2018-08-25T10:50:07.890Z,62.16
2018-08-25T10:52:35.458Z,62.65
2018-08-25T10:55:03.070Z,62.40
2018-08-25T10:57:30.697Z,62.89
2018-08-25T10:59:58.261Z,62.19
2018-08-25T11:02:26.832Z,62.44
2018-08-25T11:04:54.256Z,62.31
2018-08-25T11:07:22.506Z,61.95
2018-08-25T11:09:50.159Z,61.77
2018-08-25T11:12:17.769Z,61.01
2018-08-25T11:14:45.459Z,60.72
2018-08-25T11:17:13.333Z,60.31
2018-08-25T11:19:40.828Z,60.41
2018-08-25T11:22:08.324Z,59.32
2018-08-25T11:24:35.877Z,58.92
2018-08-25T11:27:03.393Z,58.70
2018-08-25T11:29:30.925Z,58.82
2018-08-25T11:31:58.643Z,58.85
2018-08-25T11:34:26.121Z,58.34
2018-08-25T11:36:53.732Z,58.28
2018-08-25T11:39:21.438Z,57.87
2018-08-25T11:41:48.919Z,57.50
2018-08-25T11:44:16.440Z,57.82
2018-08-25T11:46:44.145Z,56.52
2018-08-25T11:49:11.821Z,55.66
2018-08-25T11:51:39.318Z,55.66
2018-08-25T11:54:07.009Z,55.78
2018-08-25T11:56:34.391Z,55.42
2018-08-25T11:59:02.146Z,55.56
2018-08-25T12:01:29.807Z,55.73
2018-08-25T12:03:57.272Z,55.39
2018-08-25T12:06:24.730Z,55.10
2018-08-25T12:08:52.362Z,54.84
2018-08-25T12:11:19.824Z,55.04
2018-08-25T12:13:47.338Z,55.08
2018-08-25T12:16:14.953Z,54.85
2018-08-25T12:18:42.380Z,55.18
2018-08-25T12:21:09.860Z,54.98
2018-08-25T12:23:37.825Z,54.58
2018-08-25T12:26:05.385Z,54.15
2018-08-25T12:28:32.926Z,53.55
2018-08-25T12:31:00.854Z,53.15
2018-08-25T12:33:28.355Z,53.22
2018-08-25T12:35:55.831Z,53.00
2018-08-25T12:38:23.398Z,52.85
2018-08-25T12:40:50.891Z,53.16
2018-08-25T12:43:18.361Z,53.00
2018-08-25T12:45:46.056Z,53.06
2018-08-25T12:48:13.493Z,52.73
2018-08-25T12:50:40.971Z,52.42
2018-08-25T12:53:08.623Z,51.73
2018-08-25T12:55:36.110Z,51.11
2018-08-25T12:58:03.759Z,52.01
2018-08-25T13:00:31.484Z,52.30
2018-08-25T13:02:58.979Z,51.47
2018-08-25T13:05:26.467Z,51.55
2018-08-25T13:07:54.138Z,50.89
2018-08-25T13:10:21.698Z,50.52
2018-08-25T13:12:49.176Z,50.85
2018-08-25T13:15:16.811Z,51.80
2018-08-25T13:17:44.291Z,51.71
2018-08-25T13:20:11.784Z,52.14
2018-08-25T13:22:39.663Z,51.82
2018-08-25T13:25:07.107Z,52.54
2018-08-25T13:27:34.584Z,52.72
2018-08-25T13:30:02.362Z,52.84
2018-08-25T13:32:29.841Z,53.78
2018-08-25T13:34:57.329Z,54.25
2018-08-25T13:37:24.910Z,53.43
2018-08-25T13:39:52.414Z,54.00
2018-08-25T13:42:19.961Z,53.92
2018-08-25T13:44:47.726Z,53.94
2018-08-25T13:47:45.819Z,54.21
2018-08-25T13:50:13.558Z,54.72
2018-08-25T13:52:41.171Z,54.94
2018-08-25T13:55:08.584Z,55.74
2018-08-25T13:57:36.185Z,55.93
2018-08-25T14:00:03.955Z,56.20
2018-08-25T14:02:31.749Z,57.07
2018-08-25T14:04:59.489Z,56.60
2018-08-25T14:07:27.131Z,56.86
2018-08-25T14:09:54.565Z,56.99
2018-08-25T14:12:22.267Z,57.00
2018-08-25T14:14:49.730Z,57.43
2018-08-25T14:17:17.301Z,56.98
2018-08-25T14:19:44.945Z,57.46
2018-08-25T14:22:12.411Z,57.95
2018-08-25T14:24:39.901Z,57.85
2018-08-25T14:27:07.740Z,58.02
2018-08-25T14:29:35.243Z,58.56
2018-08-25T14:32:02.996Z,58.28
2018-08-25T14:34:30.897Z,58.13
2018-08-25T14:36:58.425Z,58.59
2018-08-25T14:39:25.971Z,58.64
2018-08-25T14:41:53.594Z,58.42
2018-08-25T14:44:21.013Z,58.49
2018-08-25T14:46:48.549Z,58.70
2018-08-25T14:49:16.227Z,58.76
2018-08-25T14:51:43.760Z,58.93
2018-08-25T14:54:11.244Z,59.58
2018-08-25T14:56:38.848Z,58.99
2018-08-25T14:59:06.319Z,59.08
2018-08-25T15:01:33.832Z,58.92
2018-08-25T15:04:01.812Z,58.75
2018-08-25T15:06:29.252Z,58.95
2018-08-25T15:08:56.724Z,59.09
2018-08-25T15:11:24.267Z,59.18
2018-08-25T15:13:51.737Z,59.06
2018-08-25T15:16:19.299Z,59.14
2018-08-25T15:18:46.833Z,58.87
2018-08-25T15:21:14.306Z,59.00
2018-08-25T15:23:41.852Z,58.91
2018-08-25T15:26:09.523Z,59.20
2018-08-25T15:28:36.967Z,58.83
2018-08-25T15:31:04.682Z,58.71
2018-08-25T15:33:32.294Z,59.08
2018-08-25T15:35:59.795Z,58.99
2018-08-25T15:38:27.329Z,59.09
2018-08-25T15:40:54.857Z,58.68
2018-08-25T15:43:22.293Z,58.64
2018-08-25T15:45:49.744Z,58.93
2018-08-25T15:48:17.254Z,59.21
2018-08-25T15:50:44.740Z,58.74
2018-08-25T15:53:12.215Z,59.30
2018-08-25T15:55:39.782Z,58.75
2018-08-25T15:58:07.515Z,59.05
2018-08-25T16:00:34.927Z,58.86
2018-08-25T16:03:02.527Z,59.34
2018-08-25T16:05:30.134Z,59.31
2018-08-25T16:07:57.610Z,59.33
2018-08-25T16:10:25.281Z,59.28
2018-08-25T16:12:52.853Z,58.90
2018-08-25T16:15:20.293Z,59.13
2018-08-25T16:17:48.178Z,59.39
2018-08-25T16:20:15.661Z,58.94
2018-08-25T16:22:43.133Z,59.05
2018-08-25T16:25:10.714Z,58.97
2018-08-25T16:27:38.187Z,59.72
2018-08-25T16:30:05.722Z,59.57
2018-08-25T16:32:33.311Z,59.05
2018-08-25T16:35:00.785Z,59.29
2018-08-25T16:37:28.303Z,59.59
2018-08-25T16:39:55.987Z,59.57
2018-08-25T16:42:23.404Z,59.95
2018-08-25T16:44:50.876Z,59.88
2018-08-25T16:47:18.466Z,59.57
2018-08-25T16:49:45.957Z,59.44
2018-08-25T16:52:13.515Z,59.46
2018-08-25T16:54:41.106Z,59.68
2018-08-25T16:57:08.569Z,60.18
2018-08-25T16:59:36.017Z,60.36
2018-08-25T17:02:03.758Z,60.27
2018-08-25T17:04:31.201Z,59.94
2018-08-25T17:06:58.932Z,60.51
2018-08-25T17:09:26.661Z,60.41
2018-08-25T17:11:54.126Z,60.58
2018-08-25T17:14:21.606Z,60.68
2018-08-25T17:16:49.374Z,60.56
2018-08-25T17:19:16.820Z,60.76
2018-08-25T17:21:44.264Z,60.51
2018-08-25T17:24:12.078Z,60.60
2018-08-25T17:26:39.712Z,61.06
2018-08-25T17:29:07.182Z,60.75
2018-08-25T17:31:34.819Z,60.82
2018-08-25T17:34:02.376Z,61.37
2018-08-25T17:36:29.924Z,61.42
2018-08-25T17:38:57.967Z,61.59
2018-08-25T17:41:25.450Z,61.62
2018-08-25T17:43:52.964Z,61.95
2018-08-25T17:46:20.561Z,61.98
2018-08-25T17:48:48.081Z,62.10
2018-08-25T17:51:15.519Z,61.96
2018-08-25T17:53:43.193Z,62.50
2018-08-25T17:56:10.817Z,62.72
2018-08-25T17:58:38.360Z,62.66
2018-08-25T18:01:06.055Z,62.30
2018-08-25T18:03:33.564Z,62.88
2018-08-25T18:06:00.977Z,62.36
2018-08-25T18:08:28.687Z,62.77
2018-08-25T18:10:56.227Z,62.76
2018-08-25T18:13:23.725Z,62.86
2018-08-25T18:15:51.371Z,63.21
2018-08-25T18:18:18.834Z,63.04
2018-08-25T18:20:46.213Z,63.13
2018-08-25T18:23:13.913Z,63.36
2018-08-25T18:25:41.374Z,63.70
2018-08-25T18:28:08.878Z,62.97
2018-08-25T18:30:36.521Z,63.72
2018-08-25T18:33:04.144Z,63.81
2018-08-25T18:35:31.757Z,63.95
2018-08-25T18:37:59.398Z,63.77
2018-08-25T18:40:26.864Z,64.13
2018-08-25T18:42:54.371Z,64.47
2018-08-25T18:45:22.248Z,64.48
2018-08-25T18:47:49.711Z,65.47
2018-08-25T18:50:17.229Z,65.13
2018-08-25T18:52:44.846Z,65.76
2018-08-25T18:55:12.572Z,65.89
2018-08-25T18:57:40.077Z,65.67
2018-08-25T19:00:07.752Z,66.50
2018-08-25T19:02:35.190Z,65.54
2018-08-25T19:05:02.680Z,66.05
2018-08-25T19:07:30.552Z,66.41
2018-08-25T19:09:58.176Z,66.37
2018-08-25T19:12:25.622Z,66.17
2018-08-25T19:14:53.145Z,66.25
2018-08-25T19:17:20.568Z,66.05
2018-08-25T19:19:48.070Z,66.37
2018-08-25T19:22:15.702Z,66.29
2018-08-25T19:24:43.151Z,66.74
2018-08-25T19:27:10.611Z,66.52
2018-08-25T19:29:38.567Z,66.50
2018-08-25T19:32:06.012Z,66.85
2018-08-25T19:34:33.525Z,66.95
2018-08-25T19:37:01.261Z,67.29
2018-08-25T19:39:28.679Z,66.81
2018-08-25T19:41:56.209Z,67.25
2018-08-25T19:44:23.942Z,66.51
2018-08-25T19:46:51.396Z,66.77
2018-08-25T19:49:18.824Z,66.73
2018-08-25T19:51:46.501Z,66.82
2018-08-25T19:54:13.959Z,66.89
2018-08-25T19:56:41.428Z,66.74
2018-08-25T19:59:09.140Z,66.88
2018-08-25T20:01:36.605Z,67.00
2018-08-25T20:04:04.068Z,67.22
2018-08-25T20:06:31.697Z,67.46
2018-08-25T20:08:59.210Z,66.96
2018-08-25T20:11:26.721Z,67.46
2018-08-25T20:13:54.296Z,67.61
2018-08-25T20:16:21.771Z,67.01
2018-08-25T20:18:49.231Z,67.38
2018-08-25T20:21:16.979Z,67.64
2018-08-25T20:23:47.257Z,67.54
2018-08-25T20:26:14.705Z,67.65
2018-08-25T20:28:42.285Z,68.05
2018-08-25T20:31:09.769Z,67.50
2018-08-25T20:33:37.253Z,67.61
2018-08-25T20:36:04.980Z,68.14
2018-08-25T20:38:32.411Z,68.12
2018-08-25T20:40:59.920Z,67.81
2018-08-25T20:43:27.420Z,67.92
2018-08-25T20:45:54.997Z,67.84
2018-08-25T20:48:22.448Z,68.03
2018-08-25T20:50:50.005Z,68.04
2018-08-25T20:53:17.541Z,68.13
2018-08-25T20:55:45.049Z,68.21
2018-08-25T20:58:12.682Z,68.22
2018-08-25T21:00:40.239Z,68.62
2018-08-25T21:03:07.753Z,68.44
2018-08-25T21:05:35.271Z,68.53
2018-08-25T21:08:02.732Z,68.61
2018-08-25T21:10:30.194Z,69.06
2018-08-25T21:12:57.860Z,68.70
2018-08-25T21:15:25.345Z,68.75
2018-08-25T21:17:53.048Z,69.18
2018-08-25T21:20:20.594Z,69.23
2018-08-25T21:22:48.123Z,69.47
2018-08-25T21:25:15.602Z,69.35
2018-08-25T21:27:43.209Z,68.83
2018-08-25T21:30:10.735Z,69.33
2018-08-25T21:32:38.247Z,69.05
2018-08-25T21:35:06.120Z,69.28
2018-08-25T21:37:33.662Z,69.52
2018-08-25T21:40:01.146Z,69.18
2018-08-25T21:42:28.606Z,69.22
2018-08-25T21:44:56.007Z,69.63
2018-08-25T21:47:23.448Z,69.84
2018-08-25T21:49:51.247Z,69.49
2018-08-25T21:52:18.708Z,69.84
2018-08-25T21:54:46.180Z,70.12
2018-08-25T21:57:13.842Z,69.61
2018-08-25T21:59:41.320Z,70.06
2018-08-25T22:02:09.622Z,70.18
2018-08-25T22:04:37.276Z,70.11
2018-08-25T22:07:04.810Z,69.65
2018-08-25T22:09:32.250Z,69.85
2018-08-25T22:11:59.859Z,69.93
2018-08-25T22:14:27.480Z,70.36
2018-08-25T22:16:55.011Z,70.27
2018-08-25T22:19:22.573Z,70.12
2018-08-25T22:21:50.102Z,69.97
2018-08-25T22:24:17.589Z,70.49
2018-08-25T22:26:45.188Z,70.39
2018-08-25T22:29:12.709Z,70.51
2018-08-25T22:31:40.212Z,70.31
2018-08-25T22:34:07.957Z,70.09
2018-08-25T22:36:35.502Z,70.38
2018-08-25T22:39:04.197Z,70.23
2018-08-25T22:41:31.866Z,70.61
2018-08-25T22:43:59.316Z,70.40
2018-08-25T22:46:26.810Z,70.22
2018-08-25T22:48:54.431Z,70.40
2018-08-25T22:51:21.937Z,70.36
2018-08-25T22:53:49.377Z,70.33
2018-08-25T22:56:16.977Z,70.57
2018-08-25T22:58:44.407Z,70.55
2018-08-25T23:01:11.906Z,70.34
2018-08-25T23:03:39.549Z,70.65
2018-08-25T23:06:07.077Z,70.71
2018-08-25T23:08:34.584Z,70.78
2018-08-25T23:11:02.225Z,71.03
2018-08-25T23:13:29.710Z,70.87
2018-08-25T23:15:57.469Z,70.71
2018-08-25T23:18:25.254Z,71.11
2018-08-25T23:20:52.669Z,71.12
2018-08-25T23:23:20.205Z,71.10
2018-08-25T23:25:47.925Z,71.09
2018-08-25T23:28:15.395Z,70.82
2018-08-25T23:30:42.849Z,70.92
2018-08-25T23:33:10.396Z,71.11
2018-08-25T23:35:37.841Z,70.56
2018-08-25T23:38:05.358Z,71.06
2018-08-25T23:40:33.022Z,71.21
2018-08-25T23:43:00.430Z,71.09
2018-08-25T23:45:27.875Z,71.25
2018-08-25T23:47:55.567Z,71.33
2018-08-25T23:50:23.083Z,71.32
2018-08-25T23:52:50.480Z,71.21
2018-08-25T23:55:18.046Z,71.22
2018-08-25T23:57:45.490Z,70.97
